createdAt,value
2022-12-09T00:01:17.729Z,100.00
2022-12-09T00:03:49.767Z,100.00
2022-12-09T00:06:21.482Z,100.00
2022-12-09T00:08:50.538Z,100.00
2022-12-09T00:11:19.759Z,100.00
2022-12-09T00:13:50.551Z,100.00
2022-12-09T00:16:19.291Z,100.00
2022-12-09T00:18:49.477Z,100.00
2022-12-09T00:21:21.704Z,100.00
2022-12-09T00:23:51.249Z,100.00
2022-12-09T00:26:22.341Z,100.00
2022-12-09T00:28:51.967Z,100.00
2022-12-09T00:31:24.116Z,100.00
2022-12-09T00:33:57.643Z,100.00
2022-12-09T00:36:27.665Z,100.00
2022-12-09T00:38:59.092Z,100.00
2022-12-09T00:41:29.606Z,100.00
2022-12-09T00:43:59.419Z,100.00
2022-12-09T00:46:27.984Z,100.00
2022-12-09T00:48:58.304Z,100.00
2022-12-09T00:51:26.752Z,100.00
2022-12-09T00:53:56.235Z,100.00
2022-12-09T00:56:26.622Z,100.00
2022-12-09T00:58:54.979Z,100.00
2022-12-09T01:01:23.832Z,100.00
2022-12-09T01:03:52.676Z,100.00
2022-12-09T01:06:25.554Z,100.00
2022-12-09T01:08:55.141Z,100.00
2022-12-09T01:11:27.095Z,100.00
2022-12-09T01:13:58.317Z,100.00
2022-12-09T01:16:28.593Z,100.00
2022-12-09T01:19:00.345Z,100.00
2022-12-09T01:21:31.577Z,100.00
2022-12-09T01:24:00.230Z,100.00
2022-12-09T01:26:29.187Z,100.00
2022-12-09T01:28:58.251Z,100.00
2022-12-09T01:31:27.670Z,100.00
2022-12-09T01:33:58.795Z,100.00
2022-12-09T01:39:58.341Z,100.00
2022-12-09T01:42:42.996Z,100.00
2022-12-09T01:46:01.673Z,100.00
2022-12-09T01:49:15.474Z,100.00
2022-12-09T01:55:41.504Z,100.00
2022-12-09T01:58:29.316Z,100.00
2022-12-09T02:01:08.477Z,100.00
2022-12-09T02:03:53.785Z,100.00
2022-12-09T02:06:47.762Z,100.00
2022-12-09T02:09:33.986Z,100.00
2022-12-09T02:12:22.517Z,100.00
2022-12-09T02:15:16.759Z,100.00
2022-12-09T02:17:50.410Z,100.00
2022-12-09T02:20:25.416Z,100.00
2022-12-09T02:23:05.034Z,100.00
2022-12-09T02:25:42.018Z,100.00
2022-12-09T02:28:45.933Z,100.00
2022-12-09T02:31:26.104Z,100.00
2022-12-09T02:34:09.048Z,100.00
2022-12-09T02:36:47.346Z,100.00
2022-12-09T02:39:16.407Z,100.00
2022-12-09T02:41:49.083Z,100.00
2022-12-09T02:44:23.051Z,100.00
2022-12-09T02:46:55.362Z,100.00
2022-12-09T02:49:28.963Z,100.00
2022-12-09T02:52:00.027Z,100.00
2022-12-09T02:54:32.525Z,100.00
2022-12-09T02:57:09.210Z,100.00
2022-12-09T02:59:38.968Z,100.00
2022-12-09T03:02:20.165Z,100.00
2022-12-09T03:05:05.137Z,100.00
2022-12-09T03:10:59.829Z,100.00
2022-12-09T03:13:45.135Z,100.00
2022-12-09T03:16:21.542Z,100.00
2022-12-09T03:18:56.116Z,100.00
2022-12-09T03:21:30.083Z,100.00
2022-12-09T03:24:01.105Z,100.00
2022-12-09T03:26:33.899Z,100.00
2022-12-09T03:29:08.863Z,100.00
2022-12-09T03:31:39.519Z,100.00
2022-12-09T03:34:11.057Z,100.00
2022-12-09T03:36:45.425Z,100.00
2022-12-09T03:39:18.425Z,100.00
2022-12-09T03:41:52.300Z,100.00
2022-12-09T03:44:25.457Z,100.00
2022-12-09T03:46:55.051Z,100.00
2022-12-09T03:49:23.792Z,100.00
2022-12-09T03:51:58.559Z,100.00
2022-12-09T03:54:29.919Z,100.00
2022-12-09T03:57:00.447Z,100.00
2022-12-09T03:59:32.901Z,100.00
2022-12-09T04:02:02.976Z,100.00
2022-12-09T04:04:35.086Z,100.00
2022-12-09T04:07:07.493Z,100.00
2022-12-09T04:09:40.602Z,100.00
2022-12-09T04:12:11.189Z,100.00
2022-12-09T04:14:39.684Z,100.00
2022-12-09T04:17:09.496Z,100.00
2022-12-09T04:19:39.506Z,100.00
2022-12-09T04:22:11.876Z,100.00
2022-12-09T04:24:41.776Z,100.00
2022-12-09T04:27:13.833Z,100.00
2022-12-09T04:29:42.956Z,100.00
2022-12-09T04:32:13.069Z,100.00
2022-12-09T04:34:42.387Z,100.00
2022-12-09T04:37:14.659Z,100.00
2022-12-09T04:39:43.598Z,100.00
2022-12-09T04:42:12.982Z,100.00
2022-12-09T04:44:42.075Z,100.00
2022-12-09T04:47:11.239Z,100.00
2022-12-09T04:49:39.637Z,100.00
2022-12-09T04:52:08.654Z,100.00
2022-12-09T04:54:38.653Z,100.00
2022-12-09T04:57:07.229Z,100.00
2022-12-09T04:59:35.765Z,100.00
2022-12-09T05:02:04.940Z,100.00
2022-12-09T05:04:34.451Z,100.00
2022-12-09T05:07:03.131Z,100.00
2022-12-09T05:09:32.347Z,100.00
2022-12-09T05:12:03.637Z,100.00
2022-12-09T05:14:32.951Z,100.00
2022-12-09T05:17:03.216Z,100.00
2022-12-09T05:19:35.110Z,100.00
2022-12-09T05:22:17.847Z,100.00
2022-12-09T05:24:48.221Z,100.00
2022-12-09T05:27:19.025Z,100.00
2022-12-09T05:29:53.202Z,100.00
2022-12-09T05:32:23.284Z,100.00
2022-12-09T05:34:52.826Z,100.00
2022-12-09T05:37:21.723Z,100.00
2022-12-09T05:39:50.838Z,100.00
2022-12-09T05:42:21.696Z,100.00
2022-12-09T05:44:51.465Z,100.00
2022-12-09T05:47:20.631Z,100.00
2022-12-09T05:49:49.620Z,100.00
2022-12-09T05:52:17.858Z,100.00
2022-12-09T05:54:46.742Z,100.00
2022-12-09T05:57:15.230Z,100.00
2022-12-09T05:59:45.425Z,100.00
2022-12-09T06:02:14.019Z,100.00
2022-12-09T06:04:42.239Z,100.00
2022-12-09T06:07:11.365Z,100.00
2022-12-09T06:09:40.240Z,100.00
2022-12-09T06:12:08.941Z,100.00
2022-12-09T06:14:37.641Z,100.00
2022-12-09T06:17:07.694Z,100.00
2022-12-09T06:19:36.254Z,100.00
2022-12-09T06:22:04.834Z,100.00
2022-12-09T06:24:33.029Z,100.00
2022-12-09T06:27:01.394Z,100.00
2022-12-09T06:29:29.628Z,100.00
2022-12-09T06:31:58.333Z,100.00
2022-12-09T06:34:29.070Z,100.00
2022-12-09T06:36:57.814Z,100.00
2022-12-09T06:39:26.791Z,100.00
2022-12-09T06:41:55.488Z,100.00
2022-12-09T06:44:24.489Z,100.00
2022-12-09T06:46:53.742Z,100.00
2022-12-09T06:49:22.332Z,100.00
2022-12-09T06:51:52.693Z,100.00
2022-12-09T06:54:21.248Z,100.00
2022-12-09T06:56:50.827Z,100.00
2022-12-09T06:59:21.152Z,100.00
2022-12-09T07:01:55.352Z,100.00
2022-12-09T07:04:24.276Z,100.00
2022-12-09T07:07:03.528Z,100.00
2022-12-09T07:09:33.183Z,100.00
2022-12-09T07:12:01.694Z,100.00
2022-12-09T07:14:40.542Z,100.00
2022-12-09T07:17:09.380Z,100.00
2022-12-09T07:19:38.050Z,100.00
2022-12-09T07:22:08.112Z,100.00
2022-12-09T07:24:36.472Z,99.76
2022-12-09T07:27:09.739Z,99.09
2022-12-09T07:29:40.253Z,97.85
2022-12-09T07:32:10.737Z,96.98
2022-12-09T07:34:39.625Z,95.96
2022-12-09T07:37:09.399Z,95.25
2022-12-09T07:39:38.244Z,95.25
2022-12-09T07:42:07.112Z,94.68
2022-12-09T07:44:49.024Z,94.49
2022-12-09T07:47:17.328Z,94.11
2022-12-09T07:49:46.077Z,94.38
2022-12-09T07:52:16.374Z,93.78
2022-12-09T07:54:44.987Z,93.09
2022-12-09T07:57:13.743Z,93.15
2022-12-09T07:59:42.179Z,93.55
2022-12-09T08:02:11.841Z,94.26
2022-12-09T08:04:40.527Z,94.46
2022-12-09T08:07:12.912Z,94.14
2022-12-09T08:09:43.936Z,93.69
2022-12-09T08:12:13.011Z,93.11
2022-12-09T08:14:46.455Z,93.41
2022-12-09T08:17:15.656Z,92.13
2022-12-09T08:19:44.373Z,92.53
2022-12-09T08:22:12.453Z,91.86
2022-12-09T08:24:40.871Z,92.44
2022-12-09T08:27:10.552Z,91.97
2022-12-09T08:29:38.889Z,92.06
2022-12-09T08:32:07.735Z,91.48
2022-12-09T08:34:35.833Z,91.85
2022-12-09T08:37:03.949Z,92.01
2022-12-09T08:39:32.420Z,92.04
2022-12-09T08:42:00.892Z,91.77
2022-12-09T08:44:30.498Z,91.26
2022-12-09T08:46:58.566Z,90.14
2022-12-09T08:49:28.161Z,90.72
2022-12-09T08:51:56.809Z,90.45
2022-12-09T08:54:25.074Z,89.76
2022-12-09T08:56:55.253Z,90.04
2022-12-09T08:59:24.507Z,89.71
2022-12-09T09:01:54.472Z,88.97
2022-12-09T09:04:23.444Z,88.80
2022-12-09T09:06:52.831Z,87.68
2022-12-09T09:09:22.770Z,87.21
2022-12-09T09:11:51.811Z,86.59
2022-12-09T09:14:20.138Z,87.35
2022-12-09T09:16:50.797Z,89.29
2022-12-09T09:19:22.819Z,89.20
2022-12-09T09:21:51.064Z,89.48
2022-12-09T09:24:22.244Z,89.57
2022-12-09T09:26:52.487Z,88.98
2022-12-09T09:29:22.269Z,88.17
2022-12-09T09:31:54.630Z,88.12
2022-12-09T09:34:26.096Z,88.85
2022-12-09T09:36:55.080Z,88.78
2022-12-09T09:39:25.741Z,88.37
2022-12-09T09:41:56.360Z,87.78
2022-12-09T09:44:28.891Z,87.29
2022-12-09T09:46:58.546Z,87.58
2022-12-09T09:49:36.489Z,87.15
2022-12-09T09:52:08.666Z,85.56
2022-12-09T09:54:37.459Z,86.02
2022-12-09T09:57:14.952Z,86.11
2022-12-09T09:59:55.713Z,86.81
2022-12-09T10:02:38.848Z,85.08
2022-12-09T10:05:15.706Z,85.94
2022-12-09T10:07:48.659Z,84.77
2022-12-09T10:10:29.837Z,85.64
2022-12-09T10:13:18.625Z,86.37
2022-12-09T10:15:56.055Z,85.72
2022-12-09T10:18:28.892Z,86.45
2022-12-09T10:20:58.820Z,87.40
2022-12-09T10:23:34.483Z,86.46
2022-12-09T10:26:07.326Z,85.88
2022-12-09T10:28:39.813Z,86.11
2022-12-09T10:31:07.850Z,86.35
2022-12-09T10:33:39.110Z,87.62
2022-12-09T10:36:24.282Z,86.97
2022-12-09T10:38:53.227Z,86.64
2022-12-09T10:41:54.638Z,87.15
2022-12-09T10:44:25.342Z,86.05
2022-12-09T10:46:59.703Z,86.03
2022-12-09T10:49:28.212Z,86.88
2022-12-09T10:51:59.405Z,85.55
2022-12-09T10:54:33.025Z,84.38
2022-12-09T10:57:04.452Z,84.83
2022-12-09T10:59:33.398Z,84.06
2022-12-09T11:02:03.787Z,84.42
2022-12-09T11:04:33.950Z,85.87
2022-12-09T11:07:06.111Z,85.67
2022-12-09T11:09:36.745Z,85.00
2022-12-09T11:12:07.562Z,86.39
2022-12-09T11:14:37.615Z,86.77
2022-12-09T11:17:18.692Z,85.79
2022-12-09T11:19:51.461Z,86.75
2022-12-09T11:22:39.557Z,86.43
2022-12-09T11:25:24.260Z,86.28
2022-12-09T11:27:55.294Z,86.59
2022-12-09T11:30:28.006Z,86.81
2022-12-09T11:33:01.120Z,87.48
2022-12-09T11:35:38.232Z,87.91
2022-12-09T11:38:19.279Z,88.00
2022-12-09T11:41:01.396Z,87.68
2022-12-09T11:43:34.877Z,88.94
2022-12-09T11:46:23.276Z,89.68
2022-12-09T11:48:57.518Z,88.34
2022-12-09T11:51:29.961Z,88.19
2022-12-09T11:54:06.092Z,89.88
2022-12-09T11:56:35.769Z,89.61
2022-12-09T11:59:07.894Z,90.49
2022-12-09T12:01:48.119Z,89.47
2022-12-09T12:04:21.117Z,89.80
2022-12-09T12:07:02.631Z,89.84
2022-12-09T12:09:39.320Z,89.43
2022-12-09T12:12:23.629Z,88.87
2022-12-09T12:14:51.686Z,87.80
2022-12-09T12:17:26.155Z,88.18
2022-12-09T12:19:56.311Z,88.18
2022-12-09T12:22:50.182Z,87.69
2022-12-09T12:25:44.728Z,86.62
2022-12-09T12:28:57.224Z,88.94
2022-12-09T12:31:43.235Z,89.30
2022-12-09T12:34:26.980Z,87.36
2022-12-09T12:37:05.936Z,85.39
2022-12-09T12:39:46.356Z,88.07
2022-12-09T12:42:30.910Z,87.56
2022-12-09T12:45:21.041Z,88.25
2022-12-09T12:47:57.667Z,88.63
2022-12-09T12:50:54.010Z,88.16
2022-12-09T12:53:32.728Z,86.99
2022-12-09T12:56:04.655Z,86.33
2022-12-09T12:58:58.139Z,86.50
2022-12-09T13:01:33.519Z,86.57
2022-12-09T13:04:21.635Z,87.13
2022-12-09T13:06:55.540Z,84.93
2022-12-09T13:09:28.509Z,84.07
2022-12-09T13:12:06.635Z,83.74
2022-12-09T13:14:41.193Z,82.34
2022-12-09T13:17:15.023Z,82.91
2022-12-09T13:19:45.692Z,82.37
2022-12-09T13:22:20.873Z,83.71
2022-12-09T13:25:00.142Z,81.11
2022-12-09T13:27:35.871Z,80.73
2022-12-09T13:30:12.015Z,80.58
2022-12-09T13:32:56.714Z,78.67
2022-12-09T13:35:32.179Z,76.14
2022-12-09T13:38:01.215Z,76.32
2022-12-09T13:40:39.001Z,75.51
2022-12-09T13:43:16.627Z,76.19
2022-12-09T13:45:58.395Z,75.11
2022-12-09T13:48:48.570Z,77.87
2022-12-09T14:03:34.902Z,84.13
2022-12-09T14:06:27.283Z,83.83
2022-12-09T14:11:57.619Z,82.42
2022-12-09T15:34:49.557Z,99.51
2022-12-09T15:37:24.133Z,100.00
2022-12-09T15:39:59.611Z,100.00
2022-12-09T15:42:32.211Z,100.00
2022-12-09T15:45:09.614Z,100.00
2022-12-09T15:47:48.002Z,100.00
2022-12-09T16:12:30.034Z,100.00
2022-12-09T16:15:01.423Z,100.00
2022-12-09T16:17:32.974Z,100.00
2022-12-09T16:20:22.834Z,100.00
2022-12-09T17:17:13.093Z,99.82
2022-12-09T17:19:44.255Z,99.12
2022-12-09T17:22:15.482Z,99.72
2022-12-09T17:27:55.916Z,100.00
2022-12-09T17:30:34.716Z,100.00
2022-12-09T17:33:04.470Z,100.00
2022-12-09T17:35:38.417Z,99.86
2022-12-09T17:38:09.771Z,100.00
2022-12-09T17:40:40.191Z,99.77
2022-12-09T17:46:40.536Z,98.31
2022-12-09T17:49:12.283Z,98.90
2022-12-09T17:51:43.160Z,100.00
2022-12-09T17:54:19.356Z,100.00
2022-12-09T17:56:50.487Z,100.00
2022-12-09T17:59:29.067Z,100.00
2022-12-09T18:02:06.214Z,100.00
2022-12-09T18:04:37.150Z,100.00
2022-12-09T18:07:08.770Z,100.00
2022-12-09T18:09:47.563Z,100.00
2022-12-09T18:12:28.269Z,100.00
2022-12-09T18:15:11.799Z,100.00
2022-12-09T18:17:42.296Z,100.00
2022-12-09T18:20:19.483Z,100.00
2022-12-09T18:22:52.017Z,100.00
2022-12-09T18:25:39.358Z,100.00
2022-12-09T18:28:29.345Z,100.00
2022-12-09T19:43:55.145Z,100.00
2022-12-09T20:26:44.207Z,100.00
2022-12-09T20:57:16.246Z,100.00
2022-12-09T21:03:06.021Z,100.00
2022-12-09T21:05:40.238Z,100.00
2022-12-09T21:08:11.983Z,98.35
2022-12-09T21:11:02.946Z,99.12
2022-12-09T21:14:06.640Z,99.06
2022-12-09T22:09:12.906Z,97.67
2022-12-09T22:12:06.053Z,98.40
2022-12-09T23:03:45.057Z,100.00
2022-12-09T23:45:13.146Z,100.00
2022-12-09T23:47:54.203Z,100.00
2022-12-09T23:59:43.277Z,100.00
